createdAt,value
2018-06-21T00:00:47.121Z,1012.38
2018-06-21T00:01:56.285Z,1012.37
2018-06-21T00:03:05.711Z,1012.37
2018-06-21T00:04:15.402Z,1012.38
2018-06-21T00:05:25.085Z,1012.42
2018-06-21T00:06:34.278Z,1012.38
2018-06-21T00:07:43.451Z,1012.42
2018-06-21T00:08:52.608Z,1012.44
2018-06-21T00:10:01.507Z,1012.41
2018-06-21T00:11:10.664Z,1012.39
2018-06-21T00:12:19.830Z,1012.42
2018-06-21T00:13:29.500Z,1012.42
2018-06-21T00:14:38.935Z,1012.43
2018-06-21T00:15:48.355Z,1012.41
2018-06-21T00:16:57.819Z,1012.42
2018-06-21T00:18:07.231Z,1012.41
2018-06-21T00:19:16.652Z,1012.37
2018-06-21T00:20:25.849Z,1012.36
2018-06-21T00:21:35.542Z,1012.41
2018-06-21T00:22:44.951Z,1012.39
2018-06-21T00:23:54.884Z,1012.35
2018-06-21T00:25:04.333Z,1012.43
2018-06-21T00:26:13.496Z,1012.39
2018-06-21T00:27:22.140Z,1012.36
2018-06-21T00:28:31.295Z,1012.36
2018-06-21T00:29:40.999Z,1012.32
2018-06-21T00:30:50.679Z,1012.31
2018-06-21T00:32:00.096Z,1012.28
2018-06-21T00:33:09.020Z,1012.33
2018-06-21T00:34:18.189Z,1012.32
2018-06-21T00:35:27.081Z,1012.3
2018-06-21T00:36:36.505Z,1012.32
2018-06-21T00:37:45.917Z,1012.32
2018-06-21T00:38:55.360Z,1012.3
2018-06-21T00:40:04.253Z,1012.27
2018-06-21T00:41:13.933Z,1012.3
2018-06-21T00:42:23.096Z,1012.27
2018-06-21T00:43:32.784Z,1012.28
2018-06-21T00:44:41.955Z,1012.24
2018-06-21T00:45:51.627Z,1012.26
2018-06-21T00:47:01.309Z,1012.23
2018-06-21T00:48:10.468Z,1012.19
2018-06-21T00:49:19.881Z,1012.18
2018-06-21T00:50:29.561Z,1012.17
2018-06-21T00:51:39.239Z,1012.14
2018-06-21T00:52:48.139Z,1012.13
2018-06-21T00:53:57.804Z,1012.1
2018-06-21T00:55:07.213Z,1012.13
2018-06-21T00:56:16.656Z,1012.1
2018-06-21T00:57:26.611Z,1012.11
2018-06-21T00:58:36.299Z,1012.05
2018-06-21T00:59:45.707Z,1012.07
2018-06-21T01:00:54.603Z,1012.03
2018-06-21T01:02:04.016Z,1012.01
2018-06-21T01:03:12.918Z,1011.99
2018-06-21T01:04:22.335Z,1011.99
2018-06-21T01:05:31.508Z,1011.96
2018-06-21T01:06:40.915Z,1011.94
2018-06-21T01:07:50.069Z,1011.93
2018-06-21T01:08:59.518Z,1011.89
2018-06-21T01:10:08.406Z,1011.92
2018-06-21T01:11:18.091Z,1011.92
2018-06-21T01:12:26.981Z,1011.91
2018-06-21T01:13:36.126Z,1011.91
2018-06-21T01:14:45.557Z,1011.92
2018-06-21T01:15:54.712Z,1011.92
2018-06-21T01:17:04.142Z,1011.94
2018-06-21T01:18:14.065Z,1011.93
2018-06-21T01:19:23.749Z,1011.91
2018-06-21T01:20:32.696Z,1011.87
2018-06-21T01:21:42.367Z,1011.86
2018-06-21T01:22:51.538Z,1011.88
2018-06-21T01:24:00.459Z,1011.84
2018-06-21T01:25:09.613Z,1011.79
2018-06-21T01:26:18.253Z,1011.77
2018-06-21T01:27:27.143Z,1011.75
2018-06-21T01:28:36.576Z,1011.72
2018-06-21T01:29:46.008Z,1011.69
2018-06-21T01:30:55.677Z,1011.69
2018-06-21T01:32:05.354Z,1011.68
2018-06-21T01:33:15.061Z,1011.66
2018-06-21T01:34:24.489Z,1011.68
2018-06-21T01:35:33.648Z,1011.65
2018-06-21T01:36:43.062Z,1011.66
2018-06-21T01:37:52.747Z,1011.68
2018-06-21T01:39:02.415Z,1011.69
2018-06-21T01:40:11.315Z,1011.67
2018-06-21T01:41:20.725Z,1011.66
2018-06-21T01:42:30.399Z,1011.64
2018-06-21T01:43:40.080Z,1011.65
2018-06-21T01:44:49.232Z,1011.61
2018-06-21T01:45:58.650Z,1011.58
2018-06-21T01:47:08.061Z,1011.6
2018-06-21T01:48:17.472Z,1011.58
2018-06-21T01:49:26.937Z,1011.55
2018-06-21T01:50:36.361Z,1011.52
2018-06-21T01:51:45.787Z,1011.53
2018-06-21T01:52:55.481Z,1011.52
2018-06-21T01:54:04.898Z,1011.49
2018-06-21T01:55:14.383Z,1011.48
2018-06-21T01:56:23.528Z,1011.48
2018-06-21T01:57:32.725Z,1011.46
2018-06-21T01:58:42.160Z,1011.44
2018-06-21T01:59:51.582Z,1011.41
2018-06-21T02:01:01.008Z,1011.4
2018-06-21T02:02:10.934Z,1011.35
2018-06-21T02:03:20.386Z,1011.33
2018-06-21T02:04:29.854Z,1011.32
2018-06-21T02:05:39.266Z,1011.35
2018-06-21T02:06:48.949Z,1011.3
2018-06-21T02:07:57.963Z,1011.34
2018-06-21T02:09:07.424Z,1011.35
2018-06-21T02:10:16.909Z,1011.35
2018-06-21T02:11:26.593Z,1011.33
2018-06-21T02:12:36.003Z,1011.3
2018-06-21T02:13:45.412Z,1011.28
2018-06-21T02:14:55.084Z,1011.25
2018-06-21T02:16:04.241Z,1011.24
2018-06-21T02:17:13.920Z,1011.21
2018-06-21T02:18:23.092Z,1011.19
2018-06-21T02:19:32.523Z,1011.17
2018-06-21T02:20:41.928Z,1011.14
2018-06-21T02:21:51.076Z,1011.15
2018-06-21T02:23:00.772Z,1011.18
2018-06-21T02:24:10.448Z,1011.16
2018-06-21T02:25:19.888Z,1011.16
2018-06-21T02:26:29.605Z,1011.14
2018-06-21T02:27:39.030Z,1011.13
2018-06-21T02:28:48.188Z,1011.07
2018-06-21T02:29:57.356Z,1011.06
2018-06-21T02:31:06.254Z,1011.02
2018-06-21T02:32:15.700Z,1010.98
2018-06-21T02:33:25.646Z,1011.02
2018-06-21T02:34:34.827Z,1010.96
2018-06-21T02:35:44.500Z,1010.94
2018-06-21T02:36:53.929Z,1010.88
2018-06-21T02:38:03.622Z,1010.84
2018-06-21T02:39:12.804Z,1010.81
2018-06-21T02:40:21.707Z,1010.79
2018-06-21T02:41:31.662Z,1010.81
2018-06-21T02:42:41.430Z,1010.79
2018-06-21T02:43:50.901Z,1010.8
2018-06-21T02:45:00.582Z,1010.8
2018-06-21T02:46:10.277Z,1010.85
2018-06-21T02:47:19.725Z,1010.84
2018-06-21T02:48:29.409Z,1010.88
2018-06-21T02:49:39.370Z,1010.88
2018-06-21T02:50:49.308Z,1010.92
2018-06-21T02:51:59.274Z,1010.86
2018-06-21T02:53:08.433Z,1010.85
2018-06-21T02:54:18.132Z,1010.82
2018-06-21T02:55:27.307Z,1010.85
2018-06-21T02:56:36.976Z,1010.85
2018-06-21T02:57:46.669Z,1010.86
2018-06-21T02:58:56.368Z,1010.85
2018-06-21T03:00:05.530Z,1010.83
2018-06-21T03:01:15.212Z,1010.82
2018-06-21T03:02:24.362Z,1010.79
2018-06-21T03:03:33.518Z,1010.8
2018-06-21T03:04:42.959Z,1010.79
2018-06-21T03:05:52.441Z,1010.75
2018-06-21T03:07:02.398Z,1010.73
2018-06-21T03:08:12.083Z,1010.73
2018-06-21T03:09:21.277Z,1010.74
2018-06-21T03:10:31.201Z,1010.77
2018-06-21T03:11:40.377Z,1010.79
2018-06-21T03:12:50.054Z,1010.77
2018-06-21T03:13:59.203Z,1010.76
2018-06-21T03:15:08.885Z,1010.76
2018-06-21T03:16:18.299Z,1010.77
2018-06-21T03:17:28.269Z,1010.78
2018-06-21T03:18:37.944Z,1010.76
2018-06-21T03:19:47.179Z,1010.79
2018-06-21T03:20:56.080Z,1010.82
2018-06-21T03:22:05.560Z,1010.84
2018-06-21T03:23:15.520Z,1010.85
2018-06-21T03:24:24.933Z,1010.9
2018-06-21T03:25:34.604Z,1010.86
2018-06-21T03:26:44.537Z,1010.87
2018-06-21T03:27:54.234Z,1010.9
2018-06-21T03:29:03.907Z,1010.87
2018-06-21T03:30:13.341Z,1010.89
2018-06-21T03:31:23.284Z,1010.92
2018-06-21T03:32:32.789Z,1010.92
2018-06-21T03:33:41.947Z,1010.95
2018-06-21T03:34:51.626Z,1010.92
2018-06-21T03:36:01.037Z,1010.95
2018-06-21T03:37:10.713Z,1010.94
2018-06-21T03:38:20.381Z,1010.96
2018-06-21T03:39:29.606Z,1010.98
2018-06-21T03:40:38.512Z,1010.98
2018-06-21T03:41:47.928Z,1010.97
2018-06-21T03:42:57.339Z,1010.98
2018-06-21T03:44:07.027Z,1010.93
2018-06-21T03:45:16.703Z,1010.96
2018-06-21T03:46:26.128Z,1010.97
2018-06-21T03:47:36.093Z,1010.94
2018-06-21T03:48:45.522Z,1010.93
2018-06-21T03:49:54.959Z,1010.94
2018-06-21T03:51:04.627Z,1010.92
2018-06-21T03:52:14.092Z,1010.94
2018-06-21T03:53:23.555Z,1010.97
2018-06-21T03:54:32.985Z,1010.96
2018-06-21T03:55:42.415Z,1011.02
2018-06-21T03:56:51.849Z,1010.97
2018-06-21T03:58:01.008Z,1010.92
2018-06-21T03:59:10.427Z,1010.91
2018-06-21T04:00:19.869Z,1010.91
2018-06-21T04:01:28.792Z,1010.92
2018-06-21T04:02:37.691Z,1010.9
2018-06-21T04:03:46.850Z,1010.85
2018-06-21T04:04:56.264Z,1010.8
2018-06-21T04:06:05.937Z,1010.79
2018-06-21T04:07:15.352Z,1010.81
2018-06-21T04:08:24.265Z,1010.8
2018-06-21T04:09:33.920Z,1010.79
2018-06-21T04:10:43.363Z,1010.77
2018-06-21T04:11:52.520Z,1010.74
2018-06-21T04:13:01.947Z,1010.72
2018-06-21T04:14:11.098Z,1010.66
2018-06-21T04:15:20.258Z,1010.66
2018-06-21T04:16:29.426Z,1010.64
2018-06-21T04:17:38.579Z,1010.61
2018-06-21T04:18:47.742Z,1010.58
2018-06-21T04:19:56.902Z,1010.6
2018-06-21T04:21:06.317Z,1010.59
2018-06-21T04:22:15.215Z,1010.65
2018-06-21T04:23:24.638Z,1010.65
2018-06-21T04:24:34.340Z,1010.64
2018-06-21T04:25:43.769Z,1010.64
2018-06-21T04:26:53.447Z,1010.64
2018-06-21T04:28:02.615Z,1010.69
2018-06-21T04:29:12.454Z,1010.69
2018-06-21T04:30:21.629Z,1010.66
2018-06-21T04:31:31.048Z,1010.65
2018-06-21T04:32:39.955Z,1010.66
2018-06-21T04:33:49.111Z,1010.74
2018-06-21T04:34:58.522Z,1010.78
2018-06-21T04:36:07.928Z,1010.76
2018-06-21T04:37:17.348Z,1010.73
2018-06-21T04:38:27.295Z,1010.74
2018-06-21T04:39:36.437Z,1010.71
2018-06-21T04:40:45.859Z,1010.68
2018-06-21T04:41:55.281Z,1010.68
2018-06-21T04:43:04.941Z,1010.66
2018-06-21T04:44:14.373Z,1010.68
2018-06-21T04:45:23.500Z,1010.7
2018-06-21T04:46:32.403Z,1010.77
2018-06-21T04:47:41.822Z,1010.71
2018-06-21T04:48:51.245Z,1010.71
2018-06-21T04:50:00.928Z,1010.74
2018-06-21T04:51:10.612Z,1010.74
2018-06-21T04:52:20.552Z,1010.76
2018-06-21T04:53:29.959Z,1010.76
2018-06-21T04:54:39.136Z,1010.73
2018-06-21T04:55:48.038Z,1010.75
2018-06-21T04:56:57.198Z,1010.77
2018-06-21T04:58:06.907Z,1010.77
2018-06-21T04:59:16.321Z,1010.76
2018-06-21T05:00:25.749Z,1010.75
2018-06-21T05:01:34.930Z,1010.75
2018-06-21T05:02:44.434Z,1010.74
2018-06-21T05:03:53.853Z,1010.75
2018-06-21T05:05:03.265Z,1010.73
2018-06-21T05:06:13.201Z,1010.69
2018-06-21T05:07:22.721Z,1010.72
2018-06-21T05:08:31.891Z,1010.66
2018-06-21T05:09:41.835Z,1010.72
2018-06-21T05:10:50.995Z,1010.68
2018-06-21T05:12:00.919Z,1010.68
2018-06-21T05:13:10.589Z,1010.68
2018-06-21T05:14:20.258Z,1010.7
2018-06-21T05:15:29.655Z,1010.7
2018-06-21T05:16:38.812Z,1010.67
2018-06-21T05:17:47.976Z,1010.62
2018-06-21T05:18:57.124Z,1010.68
2018-06-21T05:20:06.276Z,1010.68
2018-06-21T05:21:15.443Z,1010.68
2018-06-21T05:22:24.870Z,1010.67
2018-06-21T05:23:34.797Z,1010.71
2018-06-21T05:24:44.601Z,1010.66
2018-06-21T05:25:54.041Z,1010.66
2018-06-21T05:27:03.478Z,1010.7
2018-06-21T05:28:12.922Z,1010.64
2018-06-21T05:29:22.093Z,1010.67
2018-06-21T05:30:31.769Z,1010.69
2018-06-21T05:31:40.924Z,1010.69
2018-06-21T05:32:50.336Z,1010.67
2018-06-21T05:34:00.029Z,1010.65
2018-06-21T05:35:09.711Z,1010.68
2018-06-21T05:36:18.855Z,1010.68
2018-06-21T05:37:28.072Z,1010.75
2018-06-21T05:38:37.634Z,1010.71
2018-06-21T05:39:47.360Z,1010.76
2018-06-21T05:40:56.794Z,1010.76
2018-06-21T05:42:06.214Z,1010.72
2018-06-21T05:43:15.374Z,1010.72
2018-06-21T05:44:24.829Z,1010.67
2018-06-21T05:45:34.388Z,1010.69
2018-06-21T05:46:44.320Z,1010.76
2018-06-21T05:47:53.743Z,1010.79
2018-06-21T05:49:03.434Z,1010.78
2018-06-21T05:50:13.439Z,1010.86
2018-06-21T05:51:23.260Z,1010.82
2018-06-21T05:52:32.927Z,1010.82
2018-06-21T05:53:42.341Z,1010.83
2018-06-21T05:54:52.288Z,1010.82
2018-06-21T05:56:01.465Z,1010.87
2018-06-21T05:57:11.137Z,1010.89
2018-06-21T05:58:20.559Z,1010.86
2018-06-21T05:59:29.753Z,1010.87
2018-06-21T06:00:38.918Z,1010.85
2018-06-21T06:01:48.594Z,1010.87
2018-06-21T06:02:59.129Z,1010.87
2018-06-21T06:04:08.309Z,1010.88
2018-06-21T06:05:17.234Z,1010.84
2018-06-21T06:06:26.406Z,1010.9
2018-06-21T06:07:35.822Z,1010.87
2018-06-21T06:08:45.245Z,1010.89
2018-06-21T06:09:54.669Z,1010.96
2018-06-21T06:11:04.590Z,1010.93
2018-06-21T06:12:14.013Z,1010.97
2018-06-21T06:13:23.167Z,1010.96
2018-06-21T06:14:32.593Z,1010.96
2018-06-21T06:15:42.061Z,1010.99
2018-06-21T06:16:51.735Z,1010.98
2018-06-21T06:18:01.838Z,1011.04
2018-06-21T06:19:11.281Z,1011.08
2018-06-21T06:20:20.194Z,1010.99
2018-06-21T06:21:29.903Z,1011.05
2018-06-21T06:22:38.563Z,1010.97
2018-06-21T06:23:48.505Z,1011.03
2018-06-21T06:24:57.934Z,1011.04
2018-06-21T06:26:06.835Z,1011.03
2018-06-21T06:27:16.305Z,1011.02
2018-06-21T06:28:25.456Z,1011.05
2018-06-21T06:29:35.493Z,1011.06
2018-06-21T06:30:44.425Z,1011.06
2018-06-21T06:31:53.861Z,1011.09
2018-06-21T06:33:03.028Z,1011.09
2018-06-21T06:34:12.474Z,1011.1
2018-06-21T06:35:22.149Z,1011.06
2018-06-21T06:36:31.327Z,1011.06
2018-06-21T06:37:40.240Z,1011.06
2018-06-21T06:38:49.914Z,1011.07
2018-06-21T06:39:59.600Z,1011.08
2018-06-21T06:41:09.266Z,1011.07
2018-06-21T06:42:18.936Z,1011.11
2018-06-21T06:43:28.614Z,1011.1
2018-06-21T06:44:38.059Z,1011.17
2018-06-21T06:45:47.491Z,1011.22
2018-06-21T06:46:56.910Z,1011.24
2018-06-21T06:48:06.079Z,1011.19
2018-06-21T06:49:15.562Z,1011.3
2018-06-21T06:50:24.925Z,1011.29
2018-06-21T06:51:34.349Z,1011.37
2018-06-21T06:52:43.778Z,1011.33
2018-06-21T06:53:53.456Z,1011.33
2018-06-21T06:55:02.361Z,1011.34
2018-06-21T06:56:11.543Z,1011.26
2018-06-21T06:57:20.991Z,1011.36
2018-06-21T06:58:30.667Z,1011.33
2018-06-21T06:59:40.620Z,1011.35
2018-06-21T07:00:49.779Z,1011.35
2018-06-21T07:01:59.477Z,1011.38
2018-06-21T07:03:09.171Z,1011.39
2018-06-21T07:04:18.853Z,1011.39
2018-06-21T07:05:28.534Z,1011.43
2018-06-21T07:06:37.953Z,1011.45
2018-06-21T07:07:47.638Z,1011.45
2018-06-21T07:08:57.648Z,1011.41
2018-06-21T07:10:07.617Z,1011.44
2018-06-21T07:11:16.787Z,1011.43
2018-06-21T07:12:26.467Z,1011.43
2018-06-21T07:13:35.636Z,1011.51
2018-06-21T07:14:44.547Z,1011.48
2018-06-21T07:15:53.726Z,1011.48
2018-06-21T07:17:02.949Z,1011.51
2018-06-21T07:18:12.363Z,1011.47
2018-06-21T07:19:21.553Z,1011.55
2018-06-21T07:20:30.559Z,1011.49
2018-06-21T07:21:39.774Z,1011.55
2018-06-21T07:22:48.930Z,1011.54
2018-06-21T07:23:58.084Z,1011.56
2018-06-21T07:25:07.765Z,1011.61
2018-06-21T07:26:17.188Z,1011.64
2018-06-21T07:27:26.373Z,1011.67
2018-06-21T07:28:35.069Z,1011.65
2018-06-21T07:29:44.745Z,1011.62
2018-06-21T07:30:53.688Z,1011.61
2018-06-21T07:32:03.396Z,1011.64
2018-06-21T07:33:13.108Z,1011.72
2018-06-21T07:34:22.273Z,1011.71
2018-06-21T07:35:31.697Z,1011.7
2018-06-21T07:36:41.124Z,1011.75
2018-06-21T07:37:50.041Z,1011.72
2018-06-21T07:38:59.346Z,1011.74
2018-06-21T07:40:08.977Z,1011.8
2018-06-21T07:41:18.414Z,1011.76
2018-06-21T07:42:27.591Z,1011.77
2018-06-21T07:43:37.039Z,1011.8
2018-06-21T07:44:46.475Z,1011.79
2018-06-21T07:45:55.915Z,1011.82
2018-06-21T07:47:05.593Z,1011.85
2018-06-21T07:48:15.287Z,1011.84
2018-06-21T07:49:25.047Z,1011.85
2018-06-21T07:50:34.473Z,1011.85
2018-06-21T07:51:43.900Z,1011.87
2018-06-21T07:52:53.592Z,1011.91
2018-06-21T07:54:02.808Z,1011.96
2018-06-21T07:55:12.269Z,1011.94
2018-06-21T07:56:21.954Z,1011.97
2018-06-21T07:57:31.891Z,1011.96
2018-06-21T07:58:41.553Z,1011.98
2018-06-21T07:59:50.961Z,1011.94
2018-06-21T08:01:00.390Z,1012.01
2018-06-21T08:02:10.061Z,1012.03
2018-06-21T08:03:19.011Z,1012.01
2018-06-21T08:04:28.171Z,1012.01
2018-06-21T08:05:37.069Z,1012.04
2018-06-21T08:06:46.224Z,1012.03
2018-06-21T08:07:55.426Z,1012.03
2018-06-21T08:09:04.617Z,1012.08
2018-06-21T08:10:13.791Z,1012.07
2018-06-21T08:11:23.225Z,1012.08
2018-06-21T08:12:32.391Z,1012.09
2018-06-21T08:13:41.561Z,1012.01
2018-06-21T08:14:51.241Z,1012.09
2018-06-21T08:16:00.901Z,1012.1
2018-06-21T08:17:10.318Z,1012.12
2018-06-21T08:18:19.224Z,1012.09
2018-06-21T08:19:28.443Z,1012.08
2018-06-21T08:20:37.910Z,1012.17
2018-06-21T08:21:47.876Z,1012.12
2018-06-21T08:22:57.318Z,1012.17
2018-06-21T08:24:06.499Z,1012.25
2018-06-21T08:25:15.694Z,1012.25
2018-06-21T08:26:24.863Z,1012.18
2018-06-21T08:27:34.583Z,1012.28
2018-06-21T08:28:44.252Z,1012.27
2018-06-21T08:29:53.407Z,1012.26
2018-06-21T08:31:02.567Z,1012.29
2018-06-21T08:32:12.343Z,1012.35
2018-06-21T08:33:22.163Z,1012.34
2018-06-21T08:34:31.360Z,1012.28
2018-06-21T08:35:40.843Z,1012.46
2018-06-21T08:36:50.523Z,1012.46
2018-06-21T08:38:00.462Z,1012.48
2018-06-21T08:39:10.414Z,1012.46
2018-06-21T08:40:20.090Z,1012.47
2018-06-21T08:41:29.254Z,1012.55
2018-06-21T08:42:38.176Z,1012.59
2018-06-21T08:43:47.380Z,1012.63
2018-06-21T08:44:56.827Z,1012.62
2018-06-21T08:46:06.359Z,1012.77
2018-06-21T08:47:16.637Z,1012.72
2018-06-21T08:48:26.321Z,1012.75
2018-06-21T08:49:35.759Z,1012.8
2018-06-21T08:50:45.183Z,1012.85
2018-06-21T08:51:54.110Z,1012.79
2018-06-21T08:53:03.909Z,1012.85
2018-06-21T08:54:13.069Z,1012.9
2018-06-21T08:55:21.976Z,1012.93
2018-06-21T08:56:31.154Z,1012.87
2018-06-21T08:57:40.854Z,1012.91
2018-06-21T08:58:50.533Z,1012.93
2018-06-21T08:59:59.697Z,1012.9
2018-06-21T09:01:09.139Z,1012.98
2018-06-21T09:02:18.548Z,1013.02
2018-06-21T09:03:27.978Z,1013
2018-06-21T09:04:37.669Z,1013
2018-06-21T09:05:47.111Z,1013.02
2018-06-21T09:06:56.034Z,1013.09
2018-06-21T09:08:05.483Z,1013.08
2018-06-21T09:09:14.684Z,1013.13
2018-06-21T09:10:24.127Z,1013.11
2018-06-21T09:11:33.832Z,1013.16
2018-06-21T09:12:43.561Z,1013.23
2018-06-21T09:13:52.990Z,1013.2
2018-06-21T09:15:02.681Z,1013.24
2018-06-21T09:16:11.830Z,1013.3
2018-06-21T09:17:21.806Z,1013.3
2018-06-21T09:18:30.984Z,1013.25
2018-06-21T09:19:40.909Z,1013.27
2018-06-21T09:20:50.585Z,1013.3
2018-06-21T09:22:00.011Z,1013.27
2018-06-21T09:23:09.463Z,1013.35
2018-06-21T09:24:18.636Z,1013.38
2018-06-21T09:25:28.065Z,1013.33
2018-06-21T09:26:37.799Z,1013.35
2018-06-21T09:27:47.504Z,1013.3
2018-06-21T09:28:56.504Z,1013.43
2018-06-21T09:30:06.459Z,1013.38
2018-06-21T09:31:16.183Z,1013.35
2018-06-21T09:32:25.368Z,1013.33
2018-06-21T09:33:34.798Z,1013.37
2018-06-21T09:34:44.507Z,1013.35
2018-06-21T09:35:53.914Z,1013.39
2018-06-21T09:37:03.344Z,1013.38
2018-06-21T09:38:12.515Z,1013.37
2018-06-21T09:39:21.677Z,1013.37
2018-06-21T09:40:30.877Z,1013.33
2018-06-21T09:41:40.332Z,1013.41
2018-06-21T09:42:49.765Z,1013.38
2018-06-21T09:44:03.825Z,1013.49
2018-06-21T09:45:13.721Z,1013.42
2018-06-21T09:46:33.870Z,1013.5
2018-06-21T09:47:43.523Z,1013.47
2018-06-21T09:48:52.702Z,1013.54
2018-06-21T09:50:02.458Z,1013.56
2018-06-21T09:51:12.143Z,1013.58
2018-06-21T09:52:21.571Z,1013.65
2018-06-21T09:53:31.079Z,1013.65
2018-06-21T09:54:40.273Z,1013.64
2018-06-21T09:55:49.181Z,1013.62
2018-06-21T09:56:58.858Z,1013.6
2018-06-21T09:58:08.019Z,1013.67
2018-06-21T09:59:17.215Z,1013.62
2018-06-21T10:00:26.649Z,1013.7
2018-06-21T10:01:35.836Z,1013.64
2018-06-21T10:02:45.216Z,1013.64
2018-06-21T10:03:54.375Z,1013.61
2018-06-21T10:05:03.538Z,1013.57
2018-06-21T10:06:13.526Z,1013.63
2018-06-21T10:07:22.692Z,1013.57
2018-06-21T10:08:32.140Z,1013.61
2018-06-21T10:09:41.063Z,1013.54
2018-06-21T10:10:50.497Z,1013.58
2018-06-21T10:12:00.435Z,1013.67
2018-06-21T10:13:09.604Z,1013.5
2018-06-21T10:14:19.019Z,1013.68
2018-06-21T10:15:28.184Z,1013.62
2018-06-21T10:16:37.612Z,1013.54
2018-06-21T10:17:47.018Z,1013.59
2018-06-21T10:18:56.179Z,1013.56
2018-06-21T10:20:05.591Z,1013.58
2018-06-21T10:21:14.506Z,1013.59
2018-06-21T10:22:24.184Z,1013.67
2018-06-21T10:23:33.340Z,1013.63
2018-06-21T10:24:42.775Z,1013.77
2018-06-21T10:25:51.702Z,1013.77
2018-06-21T10:27:01.389Z,1013.73
2018-06-21T10:28:10.546Z,1013.83
2018-06-21T10:29:19.974Z,1013.86
2018-06-21T10:30:29.657Z,1013.84
2018-06-21T10:31:39.068Z,1013.87
2018-06-21T10:32:48.495Z,1013.96
2018-06-21T10:33:58.189Z,1013.94
2018-06-21T10:35:07.900Z,1013.97
2018-06-21T10:36:17.656Z,1014
2018-06-21T10:37:26.812Z,1014.03
2018-06-21T10:38:35.706Z,1014.01
2018-06-21T10:39:45.390Z,1013.98
2018-06-21T10:40:54.820Z,1013.98
2018-06-21T10:42:04.033Z,1014.02
2018-06-21T10:43:13.451Z,1014.09
2018-06-21T10:44:22.613Z,1014.22
2018-06-21T10:45:31.790Z,1014.22
2018-06-21T10:46:41.469Z,1014.21
2018-06-21T10:47:50.898Z,1014.26
2018-06-21T10:49:00.067Z,1014.13
2018-06-21T10:50:09.839Z,1014.21
2018-06-21T10:51:19.303Z,1014.2
2018-06-21T10:52:28.232Z,1014.26
2018-06-21T10:53:37.931Z,1014.25
2018-06-21T10:54:47.602Z,1014.24
2018-06-21T10:55:57.294Z,1014.26
2018-06-21T10:57:06.735Z,1014.26
2018-06-21T10:58:16.559Z,1014.33
2018-06-21T10:59:26.289Z,1014.31
2018-06-21T11:00:35.982Z,1014.34
2018-06-21T11:01:44.926Z,1014.29
2018-06-21T11:02:54.853Z,1014.27
2018-06-21T11:04:04.262Z,1014.21
2018-06-21T11:05:13.693Z,1014.24
2018-06-21T11:06:23.106Z,1014.26
2018-06-21T11:07:32.787Z,1014.28
2018-06-21T11:08:42.013Z,1014.24
2018-06-21T11:09:52.380Z,1014.3
2018-06-21T11:11:01.311Z,1014.31
2018-06-21T11:12:10.470Z,1014.29
2018-06-21T11:13:19.639Z,1014.33
2018-06-21T11:14:29.055Z,1014.33
2018-06-21T11:15:38.241Z,1014.28
2018-06-21T11:16:48.187Z,1014.3
2018-06-21T11:17:57.863Z,1014.44
2018-06-21T11:19:07.783Z,1014.31
2018-06-21T11:20:16.945Z,1014.34
2018-06-21T11:21:26.202Z,1014.38
2018-06-21T11:22:36.220Z,1014.43
2018-06-21T11:23:44.878Z,1014.44
2018-06-21T11:24:54.041Z,1014.54
2018-06-21T11:26:03.467Z,1014.45
2018-06-21T11:27:12.888Z,1014.44
2018-06-21T11:28:23.322Z,1014.6
2018-06-21T11:29:32.510Z,1014.58
2018-06-21T11:30:42.192Z,1014.53
2018-06-21T11:31:51.607Z,1014.57
2018-06-21T11:33:01.026Z,1014.57
2018-06-21T11:34:10.193Z,1014.57
2018-06-21T11:35:19.358Z,1014.58
2018-06-21T11:36:28.819Z,1014.63
2018-06-21T11:37:38.743Z,1014.6
2018-06-21T11:38:47.901Z,1014.72
2018-06-21T11:39:57.320Z,1014.86
2018-06-21T11:41:06.501Z,1014.77
2018-06-21T11:42:15.400Z,1014.74
2018-06-21T11:43:24.806Z,1014.78
2018-06-21T11:44:34.738Z,1014.72
2018-06-21T11:45:44.143Z,1014.61
2018-06-21T11:46:54.080Z,1014.74
2018-06-21T11:48:03.797Z,1014.72
2018-06-21T11:49:13.226Z,1014.74
2018-06-21T11:50:22.940Z,1014.75
2018-06-21T11:51:32.627Z,1014.72
2018-06-21T11:52:42.087Z,1014.77
2018-06-21T11:53:51.506Z,1014.73
2018-06-21T11:55:00.936Z,1014.84
2018-06-21T11:56:10.117Z,1014.79
2018-06-21T11:57:19.086Z,1014.74
2018-06-21T11:58:28.587Z,1014.84
2018-06-21T11:59:38.245Z,1014.77
2018-06-21T12:00:47.853Z,1014.81
2018-06-21T12:01:57.016Z,1014.78
2018-06-21T12:03:06.229Z,1014.83
2018-06-21T12:04:15.986Z,1014.68
2018-06-21T12:05:25.448Z,1014.81
2018-06-21T12:06:34.976Z,1014.84
2018-06-21T12:07:43.930Z,1014.85
2018-06-21T12:08:53.037Z,1014.86
2018-06-21T12:10:02.281Z,1014.82
2018-06-21T12:11:12.325Z,1014.89
2018-06-21T12:12:22.317Z,1014.87
2018-06-21T12:13:32.010Z,1014.85
2018-06-21T12:14:41.448Z,1014.88
2018-06-21T12:15:50.619Z,1014.96
2018-06-21T12:17:00.351Z,1015
2018-06-21T12:18:10.168Z,1015.08
2018-06-21T12:19:19.325Z,1014.96
2018-06-21T12:20:28.490Z,1015.08
2018-06-21T12:21:38.190Z,1015.08
2018-06-21T12:22:47.619Z,1015.02
2018-06-21T12:23:56.782Z,1015
2018-06-21T12:25:06.498Z,1015.08
2018-06-21T12:26:16.085Z,1014.99
2018-06-21T12:27:26.089Z,1015.01
2018-06-21T12:28:35.774Z,1015.09
2018-06-21T12:29:44.935Z,1015.18
2018-06-21T12:30:54.355Z,1015.13
2018-06-21T12:32:03.805Z,1015.09
2018-06-21T12:33:13.282Z,1015.1
2018-06-21T12:34:22.186Z,1015.16
2018-06-21T12:35:32.126Z,1015.15
2018-06-21T12:36:41.288Z,1015.15
2018-06-21T12:37:50.735Z,1015.1
2018-06-21T12:39:00.702Z,1015.09
2018-06-21T12:40:10.392Z,1015.19
2018-06-21T12:41:20.065Z,1015.2
2018-06-21T12:42:29.747Z,1015.25
2018-06-21T12:43:39.817Z,1015.24
2018-06-21T12:44:49.706Z,1015.3
2018-06-21T12:45:59.379Z,1015.27
2018-06-21T12:47:08.817Z,1015.27
2018-06-21T12:48:18.954Z,1015.26
2018-06-21T12:49:28.375Z,1015.21
2018-06-21T12:50:37.793Z,1015.3
2018-06-21T12:51:47.198Z,1015.28
2018-06-21T12:52:56.351Z,1015.28
2018-06-21T12:54:05.272Z,1015.36
2018-06-21T12:55:14.702Z,1015.39
2018-06-21T12:56:24.125Z,1015.21
2018-06-21T12:57:34.068Z,1015.34
2018-06-21T12:58:43.498Z,1015.42
2018-06-21T12:59:53.172Z,1015.44
2018-06-21T13:01:02.960Z,1015.37
2018-06-21T13:02:12.369Z,1015.37
2018-06-21T13:03:21.529Z,1015.4
2018-06-21T13:04:30.959Z,1015.35
2018-06-21T13:05:40.654Z,1015.34
2018-06-21T13:06:50.371Z,1015.43
2018-06-21T13:07:59.625Z,1015.39
2018-06-21T13:09:09.042Z,1015.42
2018-06-21T13:10:18.256Z,1015.43
2018-06-21T13:11:27.421Z,1015.47
2018-06-21T13:12:36.834Z,1015.55
2018-06-21T13:13:46.260Z,1015.52
2018-06-21T13:14:55.960Z,1015.53
2018-06-21T13:16:04.875Z,1015.62
2018-06-21T13:17:14.565Z,1015.65
2018-06-21T13:18:24.260Z,1015.61
2018-06-21T13:19:33.711Z,1015.5
2018-06-21T13:20:42.618Z,1015.58
2018-06-21T13:21:51.858Z,1015.54
2018-06-21T13:23:01.061Z,1015.59
2018-06-21T13:24:10.746Z,1015.62
2018-06-21T13:25:20.173Z,1015.56
2018-06-21T13:26:29.416Z,1015.6
2018-06-21T13:27:38.833Z,1015.61
2018-06-21T13:28:48.268Z,1015.68
2018-06-21T13:29:57.423Z,1015.66
2018-06-21T13:31:07.111Z,1015.7
2018-06-21T13:32:16.792Z,1015.81
2018-06-21T13:33:25.714Z,1015.76
2018-06-21T13:34:35.127Z,1015.8
2018-06-21T13:35:44.587Z,1015.76
2018-06-21T13:36:54.300Z,1015.72
2018-06-21T13:38:03.792Z,1015.74
2018-06-21T13:39:13.251Z,1015.74
2018-06-21T13:40:22.158Z,1015.86
2018-06-21T13:41:31.825Z,1015.76
2018-06-21T13:42:41.275Z,1015.85
2018-06-21T13:43:50.748Z,1015.81
2018-06-21T13:45:00.683Z,1015.82
2018-06-21T13:46:10.128Z,1015.82
2018-06-21T13:47:19.827Z,1015.87
2018-06-21T13:48:29.236Z,1016.02
2018-06-21T13:49:38.662Z,1015.85
2018-06-21T13:50:47.823Z,1015.88
2018-06-21T13:51:57.498Z,1016.01
2018-06-21T13:53:06.983Z,1016.01
2018-06-21T13:54:16.136Z,1015.93
2018-06-21T13:55:25.551Z,1015.88
2018-06-21T13:56:35.241Z,1015.91
2018-06-21T13:57:44.724Z,1015.91
2018-06-21T13:58:54.390Z,1015.96
2018-06-21T14:00:04.069Z,1015.97
2018-06-21T14:01:14.021Z,1016.09
2018-06-21T14:02:23.437Z,1016.05